sensor_id;sensor_type;location;lat;lon;timestamp;pressure;altitude;pressure_sealevel;temperature;humidity
32933;BME280;19444;50.518;10.870;2023-04-12T00:01:05;96091.56;;;0.98;100.00
32933;BME280;19444;50.518;10.870;2023-04-12T00:04:02;96091.50;;;0.83;100.00
32933;BME280;19444;50.518;10.870;2023-04-12T00:07:01;96086.59;;;1.02;100.00
32933;BME280;19444;50.518;10.870;2023-04-12T00:09:58;96081.53;;;1.00;100.00
32933;BME280;19444;50.518;10.870;2023-04-12T00:12:55;96078.09;;;1.00;100.00
32933;BME280;19444;50.518;10.870;2023-04-12T00:15:52;96068.91;;;1.02;100.00
32933;BME280;19444;50.518;10.870;2023-04-12T00:18:49;96069.34;;;0.84;100.00
32933;BME280;19444;50.518;10.870;2023-04-12T00:21:47;96059.44;;;1.11;100.00
32933;BME280;19444;50.518;10.870;2023-04-12T00:24:43;96058.88;;;1.04;100.00
32933;BME280;19444;50.518;10.870;2023-04-12T00:27:40;96054.34;;;0.95;100.00
32933;BME280;19444;50.518;10.870;2023-04-12T00:30:37;96051.78;;;1.10;100.00
32933;BME280;19444;50.518;10.870;2023-04-12T00:33:34;96034.59;;;1.02;100.00
32933;BME280;19444;50.518;10.870;2023-04-12T00:36:31;96039.31;;;1.00;100.00
32933;BME280;19444;50.518;10.870;2023-04-12T00:39:28;96029.59;;;1.06;100.00
32933;BME280;19444;50.518;10.870;2023-04-12T00:42:25;96026.63;;;0.87;100.00
32933;BME280;19444;50.518;10.870;2023-04-12T00:45:21;96029.00;;;0.89;100.00
32933;BME280;19444;50.518;10.870;2023-04-12T00:48:18;96020.81;;;0.85;100.00
32933;BME280;19444;50.518;10.870;2023-04-12T00:51:15;96011.91;;;1.01;100.00
32933;BME280;19444;50.518;10.870;2023-04-12T00:54:14;96014.00;;;0.94;100.00
32933;BME280;19444;50.518;10.870;2023-04-12T00:57:13;96008.72;;;0.99;100.00
32933;BME280;19444;50.518;10.870;2023-04-12T01:00:11;96006.63;;;1.01;100.00
32933;BME280;19444;50.518;10.870;2023-04-12T01:03:08;95998.66;;;0.91;100.00
32933;BME280;19444;50.518;10.870;2023-04-12T01:13:07;95993.97;;;1.08;100.00
32933;BME280;19444;50.518;10.870;2023-04-12T01:16:41;95986.03;;;0.98;100.00
32933;BME280;19444;50.518;10.870;2023-04-12T01:23:42;95981.84;;;1.02;100.00
32933;BME280;19444;50.518;10.870;2023-04-12T01:26:47;95963.63;;;1.06;100.00
32933;BME280;19444;50.518;10.870;2023-04-12T01:29:45;95956.50;;;1.06;100.00
32933;BME280;19444;50.518;10.870;2023-04-12T01:32:49;95957.81;;;1.04;100.00
32933;BME280;19444;50.518;10.870;2023-04-12T01:35:48;95958.91;;;1.13;100.00
32933;BME280;19444;50.518;10.870;2023-04-12T01:38:45;95945.16;;;1.06;100.00
32933;BME280;19444;50.518;10.870;2023-04-12T01:41:44;95942.53;;;1.06;100.00
32933;BME280;19444;50.518;10.870;2023-04-12T01:44:44;95948.31;;;1.03;100.00
32933;BME280;19444;50.518;10.870;2023-04-12T01:47:41;95936.75;;;1.14;100.00
32933;BME280;19444;50.518;10.870;2023-04-12T01:51:05;95930.13;;;1.17;100.00
32933;BME280;19444;50.518;10.870;2023-04-12T01:54:13;95926.22;;;1.19;100.00
32933;BME280;19444;50.518;10.870;2023-04-12T01:57:14;95920.09;;;1.19;100.00
32933;BME280;19444;50.518;10.870;2023-04-12T02:00:12;95921.97;;;1.33;100.00
32933;BME280;19444;50.518;10.870;2023-04-12T02:03:09;95912.19;;;1.19;100.00
32933;BME280;19444;50.518;10.870;2023-04-12T02:06:08;95905.31;;;1.07;100.00
32933;BME280;19444;50.518;10.870;2023-04-12T02:09:06;95901.63;;;1.13;100.00
32933;BME280;19444;50.518;10.870;2023-04-12T02:12:08;95896.09;;;1.10;100.00
32933;BME280;19444;50.518;10.870;2023-04-12T02:15:06;95892.16;;;1.23;100.00
32933;BME280;19444;50.518;10.870;2023-04-12T02:18:03;95876.84;;;1.25;100.00
32933;BME280;19444;50.518;10.870;2023-04-12T02:21:00;95872.63;;;1.24;100.00
32933;BME280;19444;50.518;10.870;2023-04-12T02:23:57;95870.50;;;1.46;100.00
32933;BME280;19444;50.518;10.870;2023-04-12T02:26:54;95867.09;;;1.30;100.00
32933;BME280;19444;50.518;10.870;2023-04-12T02:29:52;95856.78;;;1.34;100.00
32933;BME280;19444;50.518;10.870;2023-04-12T02:32:48;95842.28;;;1.47;100.00
32933;BME280;19444;50.518;10.870;2023-04-12T02:35:47;95835.94;;;1.37;100.00
32933;BME280;19444;50.518;10.870;2023-04-12T02:38:43;95847.00;;;1.45;100.00
32933;BME280;19444;50.518;10.870;2023-04-12T02:41:41;95826.16;;;1.33;100.00
32933;BME280;19444;50.518;10.870;2023-04-12T02:44:38;95822.75;;;1.37;100.00
32933;BME280;19444;50.518;10.870;2023-04-12T02:47:35;95813.47;;;1.45;100.00
32933;BME280;19444;50.518;10.870;2023-04-12T02:50:33;95812.97;;;1.48;100.00
32933;BME280;19444;50.518;10.870;2023-04-12T02:53:30;95791.03;;;1.53;100.00
32933;BME280;19444;50.518;10.870;2023-04-12T02:56:27;95794.44;;;1.63;100.00
32933;BME280;19444;50.518;10.870;2023-04-12T02:59:25;95791.56;;;1.50;100.00
32933;BME280;19444;50.518;10.870;2023-04-12T03:02:22;95795.75;;;1.76;100.00
32933;BME280;19444;50.518;10.870;2023-04-12T03:05:19;95796.50;;;1.82;100.00
32933;BME280;19444;50.518;10.870;2023-04-12T03:08:16;95794.91;;;1.86;100.00
32933;BME280;19444;50.518;10.870;2023-04-12T03:11:13;95786.25;;;1.65;100.00
32933;BME280;19444;50.518;10.870;2023-04-12T03:14:10;95791.53;;;1.65;100.00
32933;BME280;19444;50.518;10.870;2023-04-12T03:17:07;95794.19;;;1.60;100.00
32933;BME280;19444;50.518;10.870;2023-04-12T03:20:08;95798.91;;;1.73;100.00
32933;BME280;19444;50.518;10.870;2023-04-12T03:23:05;95799.72;;;1.63;100.00
32933;BME280;19444;50.518;10.870;2023-04-12T03:26:02;95793.38;;;1.64;100.00
32933;BME280;19444;50.518;10.870;2023-04-12T03:29:03;95791.78;;;1.63;100.00
32933;BME280;19444;50.518;10.870;2023-04-12T03:32:06;95794.97;;;1.55;100.00
32933;BME280;19444;50.518;10.870;2023-04-12T03:35:04;95781.53;;;1.57;100.00
32933;BME280;19444;50.518;10.870;2023-04-12T03:38:03;95782.00;;;1.69;100.00
32933;BME280;19444;50.518;10.870;2023-04-12T03:41:00;95778.59;;;1.68;100.00
32933;BME280;19444;50.518;10.870;2023-04-12T03:43:57;95778.59;;;1.63;100.00
32933;BME280;19444;50.518;10.870;2023-04-12T03:46:54;95770.41;;;1.60;100.00
32933;BME280;19444;50.518;10.870;2023-04-12T03:49:54;95766.19;;;1.54;100.00
32933;BME280;19444;50.518;10.870;2023-04-12T03:53:06;95754.84;;;1.58;100.00
32933;BME280;19444;50.518;10.870;2023-04-12T03:56:04;95745.59;;;1.61;100.00
32933;BME280;19444;50.518;10.870;2023-04-12T03:59:01;95746.16;;;1.48;100.00
32933;BME280;19444;50.518;10.870;2023-04-12T04:02:01;95738.97;;;1.63;100.00
32933;BME280;19444;50.518;10.870;2023-04-12T04:04:58;95744.25;;;1.63;100.00
32933;BME280;19444;50.518;10.870;2023-04-12T04:07:55;95744.56;;;1.57;100.00
32933;BME280;19444;50.518;10.870;2023-04-12T04:10:56;95735.50;;;1.73;100.00
32933;BME280;19444;50.518;10.870;2023-04-12T04:13:53;95736.31;;;1.68;100.00
32933;BME280;19444;50.518;10.870;2023-04-12T04:16:50;95708.53;;;1.81;100.00
32933;BME280;19444;50.518;10.870;2023-04-12T04:19:47;95717.25;;;1.87;100.00
32933;BME280;19444;50.518;10.870;2023-04-12T04:22:45;95715.78;;;2.10;100.00
32933;BME280;19444;50.518;10.870;2023-04-12T04:25:43;95711.09;;;2.02;100.00
32933;BME280;19444;50.518;10.870;2023-04-12T04:28:42;95715.09;;;1.94;100.00
32933;BME280;19444;50.518;10.870;2023-04-12T04:31:40;95718.16;;;2.16;100.00
32933;BME280;19444;50.518;10.870;2023-04-12T04:34:37;95720.28;;;2.14;100.00
32933;BME280;19444;50.518;10.870;2023-04-12T04:37:35;95726.13;;;2.06;100.00
32933;BME280;19444;50.518;10.870;2023-04-12T04:40:35;95719.16;;;2.25;100.00
32933;BME280;19444;50.518;10.870;2023-04-12T04:43:32;95713.06;;;2.30;100.00
32933;BME280;19444;50.518;10.870;2023-04-12T04:46:30;95706.91;;;2.40;100.00
32933;BME280;19444;50.518;10.870;2023-04-12T04:49:27;95702.00;;;2.23;100.00
32933;BME280;19444;50.518;10.870;2023-04-12T04:52:24;95694.16;;;2.47;100.00
32933;BME280;19444;50.518;10.870;2023-04-12T04:55:21;95695.75;;;2.48;100.00
32933;BME280;19444;50.518;10.870;2023-04-12T04:58:20;95685.03;;;2.63;100.00
32933;BME280;19444;50.518;10.870;2023-04-12T05:01:17;95692.09;;;2.73;100.00
32933;BME280;19444;50.518;10.870;2023-04-12T05:04:14;95693.22;;;2.67;100.00
32933;BME280;19444;50.518;10.870;2023-04-12T05:07:11;95694.41;;;2.84;100.00
32933;BME280;19444;50.518;10.870;2023-04-12T05:10:10;95699.84;;;2.98;100.00
32933;BME280;19444;50.518;10.870;2023-04-12T05:13:07;95690.00;;;3.04;100.00
32933;BME280;19444;50.518;10.870;2023-04-12T05:16:06;95682.84;;;3.04;100.00
32933;BME280;19444;50.518;10.870;2023-04-12T05:19:03;95677.81;;;3.32;100.00
32933;BME280;19444;50.518;10.870;2023-04-12T05:22:00;95687.69;;;3.50;100.00
32933;BME280;19444;50.518;10.870;2023-04-12T05:24:57;95685.25;;;3.54;100.00
32933;BME280;19444;50.518;10.870;2023-04-12T05:27:54;95674.44;;;3.50;100.00
32933;BME280;19444;50.518;10.870;2023-04-12T05:30:51;95667.38;;;3.83;100.00
32933;BME280;19444;50.518;10.870;2023-04-12T05:33:48;95661.84;;;4.04;100.00
32933;BME280;19444;50.518;10.870;2023-04-12T05:36:45;95656.16;;;3.91;100.00
32933;BME280;19444;50.518;10.870;2023-04-12T05:39:42;95649.22;;;4.14;100.00
32933;BME280;19444;50.518;10.870;2023-04-12T05:42:39;95646.44;;;4.06;100.00
32933;BME280;19444;50.518;10.870;2023-04-12T05:45:35;95644.38;;;4.03;100.00
32933;BME280;19444;50.518;10.870;2023-04-12T05:48:32;95640.69;;;4.17;100.00
32933;BME280;19444;50.518;10.870;2023-04-12T05:51:29;95629.09;;;4.13;100.00
32933;BME280;19444;50.518;10.870;2023-04-12T05:54:36;95644.59;;;4.39;100.00
32933;BME280;19444;50.518;10.870;2023-04-12T05:57:33;95643.13;;;4.33;100.00
32933;BME280;19444;50.518;10.870;2023-04-12T06:00:30;95633.06;;;4.29;100.00
32933;BME280;19444;50.518;10.870;2023-04-12T06:03:27;95630.22;;;4.26;100.00
32933;BME280;19444;50.518;10.870;2023-04-12T06:06:26;95627.22;;;4.33;100.00
32933;BME280;19444;50.518;10.870;2023-04-12T06:09:26;95627.72;;;4.35;100.00
32933;BME280;19444;50.518;10.870;2023-04-12T06:12:23;95616.03;;;4.36;100.00
32933;BME280;19444;50.518;10.870;2023-04-12T06:15:20;95604.03;;;4.38;100.00
32933;BME280;19444;50.518;10.870;2023-04-12T06:18:17;95604.41;;;4.50;100.00
32933;BME280;19444;50.518;10.870;2023-04-12T06:21:14;95609.06;;;4.40;100.00
32933;BME280;19444;50.518;10.870;2023-04-12T06:24:10;95597.72;;;4.53;100.00
32933;BME280;19444;50.518;10.870;2023-04-12T06:27:07;95583.66;;;4.52;100.00
32933;BME280;19444;50.518;10.870;2023-04-12T06:30:05;95583.06;;;4.55;100.00
32933;BME280;19444;50.518;10.870;2023-04-12T06:33:02;95580.50;;;4.50;100.00
32933;BME280;19444;50.518;10.870;2023-04-12T06:35:59;95580.94;;;4.57;100.00
32933;BME280;19444;50.518;10.870;2023-04-12T06:38:56;95582.50;;;4.59;100.00
32933;BME280;19444;50.518;10.870;2023-04-12T06:41:54;95567.94;;;4.56;100.00
32933;BME280;19444;50.518;10.870;2023-04-12T06:44:53;95555.56;;;4.65;100.00
32933;BME280;19444;50.518;10.870;2023-04-12T06:47:50;95542.06;;;4.48;100.00
32933;BME280;19444;50.518;10.870;2023-04-12T06:50:46;95543.06;;;4.52;100.00
32933;BME280;19444;50.518;10.870;2023-04-12T06:53:43;95537.59;;;4.62;100.00
32933;BME280;19444;50.518;10.870;2023-04-12T06:56:40;95523.03;;;4.73;100.00
32933;BME280;19444;50.518;10.870;2023-04-12T06:59:37;95519.78;;;4.63;100.00
32933;BME280;19444;50.518;10.870;2023-04-12T07:02:34;95514.41;;;4.68;100.00
32933;BME280;19444;50.518;10.870;2023-04-12T07:05:32;95501.25;;;4.76;100.00
32933;BME280;19444;50.518;10.870;2023-04-12T07:08:29;95496.72;;;4.77;100.00
32933;BME280;19444;50.518;10.870;2023-04-12T07:11:26;95495.53;;;4.97;100.00
32933;BME280;19444;50.518;10.870;2023-04-12T07:14:24;95489.03;;;5.03;100.00
32933;BME280;19444;50.518;10.870;2023-04-12T07:17:21;95489.44;;;4.96;100.00
32933;BME280;19444;50.518;10.870;2023-04-12T07:20:18;95477.13;;;5.00;100.00
32933;BME280;19444;50.518;10.870;2023-04-12T07:23:15;95472.56;;;5.28;100.00
32933;BME280;19444;50.518;10.870;2023-04-12T07:26:12;95470.81;;;5.24;100.00
32933;BME280;19444;50.518;10.870;2023-04-12T07:29:09;95467.81;;;5.39;100.00
32933;BME280;19444;50.518;10.870;2023-04-12T07:32:08;95466.16;;;5.43;100.00
32933;BME280;19444;50.518;10.870;2023-04-12T07:35:05;95457.53;;;5.60;100.00
32933;BME280;19444;50.518;10.870;2023-04-12T07:38:02;95454.94;;;5.68;100.00
32933;BME280;19444;50.518;10.870;2023-04-12T07:41:00;95435.84;;;5.66;100.00
32933;BME280;19444;50.518;10.870;2023-04-12T07:43:58;95437.53;;;5.85;100.00
32933;BME280;19444;50.518;10.870;2023-04-12T07:46:55;95424.47;;;5.75;100.00
32933;BME280;19444;50.518;10.870;2023-04-12T07:49:51;95428.25;;;5.51;100.00
32933;BME280;19444;50.518;10.870;2023-04-12T07:52:48;95425.88;;;5.72;100.00
32933;BME280;19444;50.518;10.870;2023-04-12T07:55:46;95428.59;;;5.81;100.00
32933;BME280;19444;50.518;10.870;2023-04-12T07:58:43;95428.59;;;5.81;100.00
32933;BME280;19444;50.518;10.870;2023-04-12T08:01:40;95428.84;;;5.70;100.00
32933;BME280;19444;50.518;10.870;2023-04-12T08:04:37;95423.56;;;5.57;100.00
32933;BME280;19444;50.518;10.870;2023-04-12T08:07:34;95418.63;;;5.64;100.00
32933;BME280;19444;50.518;10.870;2023-04-12T08:10:31;95427.28;;;5.69;100.00
32933;BME280;19444;50.518;10.870;2023-04-12T08:13:28;95414.72;;;5.61;100.00
32933;BME280;19444;50.518;10.870;2023-04-12T08:16:25;95409.41;;;5.61;100.00
32933;BME280;19444;50.518;10.870;2023-04-12T08:19:23;95407.47;;;5.53;100.00
32933;BME280;19444;50.518;10.870;2023-04-12T08:22:20;95409.22;;;5.58;100.00
32933;BME280;19444;50.518;10.870;2023-04-12T08:25:17;95406.44;;;5.63;100.00
32933;BME280;19444;50.518;10.870;2023-04-12T08:28:13;95405.03;;;5.43;100.00
32933;BME280;19444;50.518;10.870;2023-04-12T08:31:11;95405.47;;;5.59;100.00
32933;BME280;19444;50.518;10.870;2023-04-12T08:34:08;95405.03;;;5.43;100.00
32933;BME280;19444;50.518;10.870;2023-04-12T08:37:05;95412.69;;;5.45;100.00
32933;BME280;19444;50.518;10.870;2023-04-12T08:40:06;95398.97;;;5.29;100.00
32933;BME280;19444;50.518;10.870;2023-04-12T08:43:06;95397.53;;;5.45;100.00
32933;BME280;19444;50.518;10.870;2023-04-12T08:46:08;95398.56;;;5.35;100.00
32933;BME280;19444;50.518;10.870;2023-04-12T08:49:05;95390.59;;;5.35;100.00
32933;BME280;19444;50.518;10.870;2023-04-12T08:52:07;95392.78;;;5.33;100.00
32933;BME280;19444;50.518;10.870;2023-04-12T08:55:08;95390.06;;;5.47;100.00
32933;BME280;19444;50.518;10.870;2023-04-12T08:58:06;95387.91;;;5.49;100.00
32933;BME280;19444;50.518;10.870;2023-04-12T09:01:11;95377.06;;;5.46;100.00
32933;BME280;19444;50.518;10.870;2023-04-12T09:04:11;95365.88;;;5.49;100.00
32933;BME280;19444;50.518;10.870;2023-04-12T09:07:08;95359.97;;;5.38;100.00
32933;BME280;19444;50.518;10.870;2023-04-12T09:10:05;95347.69;;;5.42;100.00
32933;BME280;19444;50.518;10.870;2023-04-12T09:13:04;95349.56;;;5.41;100.00
32933;BME280;19444;50.518;10.870;2023-04-12T09:16:02;95334.31;;;5.56;100.00
32933;BME280;19444;50.518;10.870;2023-04-12T09:18:59;95337.63;;;5.61;100.00
32933;BME280;19444;50.518;10.870;2023-04-12T09:21:59;95333.47;;;5.69;100.00
32933;BME280;19444;50.518;10.870;2023-04-12T09:24:56;95317.63;;;5.64;100.00
32933;BME280;19444;50.518;10.870;2023-04-12T09:27:54;95315.03;;;5.72;100.00
32933;BME280;19444;50.518;10.870;2023-04-12T09:30:56;95320.47;;;5.67;100.00
32933;BME280;19444;50.518;10.870;2023-04-12T09:34:06;95310.97;;;5.75;100.00
32933;BME280;19444;50.518;10.870;2023-04-12T09:37:16;95304.03;;;5.65;100.00
32933;BME280;19444;50.518;10.870;2023-04-12T09:40:14;95286.13;;;5.80;100.00
32933;BME280;19444;50.518;10.870;2023-04-12T09:43:11;95283.50;;;5.88;100.00
32933;BME280;19444;50.518;10.870;2023-04-12T09:46:12;95278.28;;;5.75;100.00
32933;BME280;19444;50.518;10.870;2023-04-12T09:49:09;95276.75;;;5.82;100.00
32933;BME280;19444;50.518;10.870;2023-04-12T09:52:11;95271.88;;;5.67;100.00
32933;BME280;19444;50.518;10.870;2023-04-12T09:55:09;95271.09;;;5.75;100.00
32933;BME280;19444;50.518;10.870;2023-04-12T09:58:06;95247.81;;;5.81;100.00
32933;BME280;19444;50.518;10.870;2023-04-12T10:01:05;95249.00;;;5.97;100.00
32933;BME280;19444;50.518;10.870;2023-04-12T10:04:06;95251.22;;;6.04;100.00
32933;BME280;19444;50.518;10.870;2023-04-12T10:07:05;95252.41;;;5.89;100.00
32933;BME280;19444;50.518;10.870;2023-04-12T10:10:03;95230.47;;;5.83;100.00
32933;BME280;19444;50.518;10.870;2023-04-12T10:13:01;95237.63;;;6.05;100.00
32933;BME280;19444;50.518;10.870;2023-04-12T10:15:59;95229.63;;;5.96;100.00
32933;BME280;19444;50.518;10.870;2023-04-12T10:19:02;95232.44;;;6.00;100.00
32933;BME280;19444;50.518;10.870;2023-04-12T10:22:00;95210.72;;;6.15;100.00
32933;BME280;19444;50.518;10.870;2023-04-12T10:24:58;95211.34;;;6.21;100.00
32933;BME280;19444;50.518;10.870;2023-04-12T10:27:56;95208.19;;;6.02;100.00
32933;BME280;19444;50.518;10.870;2023-04-12T10:30:56;95209.28;;;6.09;100.00
32933;BME280;19444;50.518;10.870;2023-04-12T10:33:53;95195.38;;;6.04;100.00
32933;BME280;19444;50.518;10.870;2023-04-12T10:36:58;95188.47;;;6.03;100.00
32933;BME280;19444;50.518;10.870;2023-04-12T10:39:56;95190.84;;;6.04;100.00
32933;BME280;19444;50.518;10.870;2023-04-12T10:49:38;95176.75;;;6.12;100.00
32933;BME280;19444;50.518;10.870;2023-04-12T10:52:35;95182.06;;;6.12;100.00
32933;BME280;19444;50.518;10.870;2023-04-12T10:55:34;95173.66;;;6.27;100.00
32933;BME280;19444;50.518;10.870;2023-04-12T11:05:10;95148.75;;;6.67;100.00
32933;BME280;19444;50.518;10.870;2023-04-12T11:08:07;95139.53;;;6.30;100.00
32933;BME280;19444;50.518;10.870;2023-04-12T11:11:18;95137.66;;;6.56;100.00
32933;BME280;19444;50.518;10.870;2023-04-12T11:14:17;95140.94;;;6.53;100.00
32933;BME280;19444;50.518;10.870;2023-04-12T11:17:20;95124.97;;;6.53;100.00
32933;BME280;19444;50.518;10.870;2023-04-12T11:20:19;95123.09;;;6.45;100.00
32933;BME280;19444;50.518;10.870;2023-04-12T11:23:16;95131.72;;;6.50;100.00
32933;BME280;19444;50.518;10.870;2023-04-12T11:26:19;95121.34;;;6.49;100.00
32933;BME280;19444;50.518;10.870;2023-04-12T11:29:24;95108.81;;;6.58;100.00
32933;BME280;19444;50.518;10.870;2023-04-12T11:32:25;95121.06;;;6.50;100.00
32933;BME280;19444;50.518;10.870;2023-04-12T11:35:23;95118.22;;;6.55;100.00
32933;BME280;19444;50.518;10.870;2023-04-12T11:38:25;95110.09;;;6.52;100.00
32933;BME280;19444;50.518;10.870;2023-04-12T11:41:22;95111.34;;;6.63;100.00
32933;BME280;19444;50.518;10.870;2023-04-12T11:44:20;95113.84;;;6.68;100.00
32933;BME280;19444;50.518;10.870;2023-04-12T11:47:21;95108.19;;;6.70;100.00
32933;BME280;19444;50.518;10.870;2023-04-12T11:50:29;95098.78;;;6.72;100.00
32933;BME280;19444;50.518;10.870;2023-04-12T11:53:28;95097.13;;;6.50;100.00
32933;BME280;19444;50.518;10.870;2023-04-12T11:56:25;95096.16;;;6.46;100.00
32933;BME280;19444;50.518;10.870;2023-04-12T11:59:33;95094.47;;;6.50;100.00
32933;BME280;19444;50.518;10.870;2023-04-12T12:02:33;95084.44;;;6.47;100.00
32933;BME280;19444;50.518;10.870;2023-04-12T12:05:42;95085.50;;;6.64;100.00
32933;BME280;19444;50.518;10.870;2023-04-12T12:08:39;95076.72;;;6.72;100.00
32933;BME280;19444;50.518;10.870;2023-04-12T12:11:36;95073.75;;;6.65;100.00
32933;BME280;19444;50.518;10.870;2023-04-12T12:14:34;95073.09;;;6.76;100.00
32933;BME280;19444;50.518;10.870;2023-04-12T12:17:35;95082.50;;;6.65;100.00
32933;BME280;19444;50.518;10.870;2023-04-12T12:20:46;95081.13;;;6.68;100.00
32933;BME280;19444;50.518;10.870;2023-04-12T12:23:44;95072.66;;;6.57;100.00
32933;BME280;19444;50.518;10.870;2023-04-12T12:26:42;95070.63;;;6.63;100.00
32933;BME280;19444;50.518;10.870;2023-04-12T12:29:40;95067.69;;;6.47;100.00
32933;BME280;19444;50.518;10.870;2023-04-12T12:32:39;95063.09;;;6.73;100.00
32933;BME280;19444;50.518;10.870;2023-04-12T12:35:36;95065.28;;;6.71;100.00
32933;BME280;19444;50.518;10.870;2023-04-12T12:38:37;95060.41;;;6.73;100.00
32933;BME280;19444;50.518;10.870;2023-04-12T12:41:35;95065.84;;;6.85;100.00
32933;BME280;19444;50.518;10.870;2023-04-12T12:44:32;95066.34;;;6.88;100.00
32933;BME280;19444;50.518;10.870;2023-04-12T12:47:33;95049.38;;;6.92;100.00
32933;BME280;19444;50.518;10.870;2023-04-12T12:50:40;95041.94;;;7.15;100.00
32933;BME280;19444;50.518;10.870;2023-04-12T12:53:39;95027.59;;;6.99;100.00
32933;BME280;19444;50.518;10.870;2023-04-12T12:56:36;95021.94;;;7.00;100.00
32933;BME280;19444;50.518;10.870;2023-04-12T12:59:33;95021.72;;;6.76;100.00
32933;BME280;19444;50.518;10.870;2023-04-12T13:02:30;95019.03;;;6.84;100.00
32933;BME280;19444;50.518;10.870;2023-04-12T13:05:29;95015.84;;;7.00;100.00
32933;BME280;19444;50.518;10.870;2023-04-12T13:08:26;95013.56;;;6.81;100.00
32933;BME280;19444;50.518;10.870;2023-04-12T13:11:23;95011.78;;;6.94;100.00
32933;BME280;19444;50.518;10.870;2023-04-12T13:14:20;95010.91;;;6.81;100.00
32933;BME280;19444;50.518;10.870;2023-04-12T13:17:17;95001.13;;;6.94;100.00
32933;BME280;19444;50.518;10.870;2023-04-12T13:20:14;95006.91;;;7.04;100.00
32933;BME280;19444;50.518;10.870;2023-04-12T13:23:11;95005.34;;;6.95;100.00
32933;BME280;19444;50.518;10.870;2023-04-12T13:26:08;94998.06;;;7.12;100.00
32933;BME280;19444;50.518;10.870;2023-04-12T13:29:05;95002.03;;;7.06;100.00
32933;BME280;19444;50.518;10.870;2023-04-12T13:32:02;94998.19;;;6.95;100.00
32933;BME280;19444;50.518;10.870;2023-04-12T13:34:59;94991.69;;;7.05;100.00
32933;BME280;19444;50.518;10.870;2023-04-12T13:37:56;94982.03;;;7.21;100.00
32933;BME280;19444;50.518;10.870;2023-04-12T13:40:53;94983.00;;;7.17;100.00
32933;BME280;19444;50.518;10.870;2023-04-12T13:43:51;94981.00;;;7.13;100.00
32933;BME280;19444;50.518;10.870;2023-04-12T13:46:48;94977.75;;;7.29;100.00
32933;BME280;19444;50.518;10.870;2023-04-12T13:49:45;94977.44;;;7.30;100.00
32933;BME280;19444;50.518;10.870;2023-04-12T13:52:42;94971.84;;;7.23;100.00
32933;BME280;19444;50.518;10.870;2023-04-12T13:55:39;94963.38;;;7.21;100.00
32933;BME280;19444;50.518;10.870;2023-04-12T13:58:36;94963.66;;;7.28;100.00
32933;BME280;19444;50.518;10.870;2023-04-12T14:01:35;94952.44;;;7.44;100.00
32933;BME280;19444;50.518;10.870;2023-04-12T14:04:32;94962.94;;;7.40;100.00
32933;BME280;19444;50.518;10.870;2023-04-12T14:07:29;94960.16;;;7.57;100.00
32933;BME280;19444;50.518;10.870;2023-04-12T14:10:26;94971.88;;;7.44;100.00
32933;BME280;19444;50.518;10.870;2023-04-12T14:13:25;94965.03;;;7.55;100.00
32933;BME280;19444;50.518;10.870;2023-04-12T14:16:22;94954.75;;;7.66;100.00
32933;BME280;19444;50.518;10.870;2023-04-12T14:19:19;94959.31;;;7.65;100.00
32933;BME280;19444;50.518;10.870;2023-04-12T14:22:17;94954.69;;;7.54;100.00
32933;BME280;19444;50.518;10.870;2023-04-12T14:25:13;94954.25;;;7.52;100.00
32933;BME280;19444;50.518;10.870;2023-04-12T14:28:10;94949.38;;;7.54;100.00
32933;BME280;19444;50.518;10.870;2023-04-12T14:31:12;94954.75;;;7.45;100.00
32933;BME280;19444;50.518;10.870;2023-04-12T14:34:11;94950.75;;;7.60;100.00
32933;BME280;19444;50.518;10.870;2023-04-12T14:37:09;94955.69;;;7.70;100.00
32933;BME280;19444;50.518;10.870;2023-04-12T14:40:07;94942.41;;;7.61;100.00
32933;BME280;19444;50.518;10.870;2023-04-12T14:43:04;94942.56;;;7.77;100.00
32933;BME280;19444;50.518;10.870;2023-04-12T14:46:01;94930.06;;;7.78;100.00
32933;BME280;19444;50.518;10.870;2023-04-12T14:48:58;94932.84;;;7.81;100.00
32933;BME280;19444;50.518;10.870;2023-04-12T14:51:57;94925.09;;;7.88;100.00
32933;BME280;19444;50.518;10.870;2023-04-12T14:54:55;94915.88;;;7.98;100.00
32933;BME280;19444;50.518;10.870;2023-04-12T14:57:52;94921.50;;;7.84;100.00
32933;BME280;19444;50.518;10.870;2023-04-12T15:00:49;94913.56;;;7.76;100.00
32933;BME280;19444;50.518;10.870;2023-04-12T15:03:46;94909.63;;;7.94;100.00
32933;BME280;19444;50.518;10.870;2023-04-12T15:06:43;94904.63;;;7.92;100.00
32933;BME280;19444;50.518;10.870;2023-04-12T15:09:40;94906.69;;;7.75;100.00
32933;BME280;19444;50.518;10.870;2023-04-12T15:12:39;94903.38;;;7.78;100.00
32933;BME280;19444;50.518;10.870;2023-04-12T15:15:36;94909.16;;;7.80;100.00
32933;BME280;19444;50.518;10.870;2023-04-12T15:18:34;94908.06;;;7.81;100.00
32933;BME280;19444;50.518;10.870;2023-04-12T15:21:33;94904.38;;;7.85;100.00
32933;BME280;19444;50.518;10.870;2023-04-12T15:24:30;94909.00;;;7.97;100.00
32933;BME280;19444;50.518;10.870;2023-04-12T15:27:27;94903.31;;;7.98;100.00
32933;BME280;19444;50.518;10.870;2023-04-12T15:30:26;94904.84;;;7.87;100.00
32933;BME280;19444;50.518;10.870;2023-04-12T15:33:23;94902.22;;;7.99;100.00
32933;BME280;19444;50.518;10.870;2023-04-12T15:36:20;94891.97;;;7.89;100.00
32933;BME280;19444;50.518;10.870;2023-04-12T15:39:17;94885.22;;;8.04;100.00
32933;BME280;19444;50.518;10.870;2023-04-12T15:42:15;94881.38;;;8.14;100.00
32933;BME280;19444;50.518;10.870;2023-04-12T15:45:12;94886.91;;;8.21;100.00
32933;BME280;19444;50.518;10.870;2023-04-12T15:48:09;94882.69;;;8.20;100.00
32933;BME280;19444;50.518;10.870;2023-04-12T15:51:06;94874.91;;;8.27;100.00
32933;BME280;19444;50.518;10.870;2023-04-12T15:54:03;94873.22;;;7.98;100.00
32933;BME280;19444;50.518;10.870;2023-04-12T15:57:00;94878.69;;;8.14;100.00